Time;durP1;ratioP1;P1;durP2;ratioP2;P2;SDS_P1;SDS_P2;PMS_P1;PMS_P2;Temp;Humidity;BMP_temperature;BMP_pressure;BME280_temperature;BME280_humidity;BME280_pressure;Samples;Min_cycle;Max_cycle;Signal;HPM_P1;HPM_P2
2023/12/16 00:00:22;;;;;;;4.15;2.90;;;23.40;50.30;;;;;;5062463;28;20049;-75
2023/12/16 00:02:48;;;;;;;3.60;2.70;;;23.30;50.30;;;;;;5054223;28;20407;-77
2023/12/16 00:05:14;;;;;;;3.88;3.03;;;23.40;50.30;;;;;;5051853;28;20068;-75
2023/12/16 00:07:41;;;;;;;4.18;2.67;;;23.50;50.30;;;;;;5055671;28;20036;-76
2023/12/16 00:10:09;;;;;;;4.35;2.95;;;23.40;50.20;;;;;;5052738;28;20033;-75
2023/12/16 00:12:35;;;;;;;4.13;3.03;;;23.20;50.20;;;;;;5001479;28;20385;-76
2023/12/16 00:15:01;;;;;;;3.50;2.75;;;23.20;50.20;;;;;;5052809;28;20146;-76
2023/12/16 00:17:27;;;;;;;3.35;2.97;;;23.20;50.30;;;;;;5065739;28;20488;-75
2023/12/16 00:19:54;;;;;;;4.88;3.00;;;23.30;50.30;;;;;;5019621;28;20052;-75
2023/12/16 00:22:20;;;;;;;4.65;3.05;;;23.20;50.30;;;;;;5050954;28;20029;-76
2023/12/16 00:24:46;;;;;;;3.42;2.90;;;23.20;50.30;;;;;;5051885;28;20033;-76
2023/12/16 00:27:12;;;;;;;4.30;3.25;;;23.20;50.30;;;;;;5033260;28;20419;-76
2023/12/16 00:29:38;;;;;;;3.78;2.80;;;23.10;50.40;;;;;;5053933;28;20051;-76
2023/12/16 00:32:04;;;;;;;4.00;2.75;;;23.10;50.40;;;;;;5053417;28;20037;-76
2023/12/16 00:34:33;;;;;;;3.22;2.75;;;23.10;50.50;;;;;;5051347;28;20094;-75
2023/12/16 00:37:01;;;;;;;3.58;2.63;;;23.10;50.40;;;;;;5066566;28;20044;-76
2023/12/16 00:39:27;;;;;;;3.75;2.78;;;23.20;50.40;;;;;;5065442;28;20135;-75
2023/12/16 00:41:53;;;;;;;4.05;3.08;;;23.10;50.40;;;;;;5058011;28;20082;-74
2023/12/16 00:44:19;;;;;;;4.45;2.67;;;23.10;50.40;;;;;;5070893;28;20033;-76
2023/12/16 00:46:45;;;;;;;4.00;2.60;;;23.20;50.30;;;;;;5062811;28;20025;-75
2023/12/16 00:49:11;;;;;;;3.90;3.05;;;23.10;50.30;;;;;;5062587;28;20029;-75
2023/12/16 00:51:37;;;;;;;5.40;3.28;;;23.10;50.30;;;;;;5051837;28;20037;-76
2023/12/16 00:54:03;;;;;;;3.65;2.40;;;23.10;50.30;;;;;;5034278;28;20169;-75
2023/12/16 00:56:29;;;;;;;3.97;2.88;;;23.20;50.30;;;;;;5050681;28;20086;-75
2023/12/16 00:58:56;;;;;;;4.45;3.30;;;23.10;50.20;;;;;;5060811;28;20427;-76
2023/12/16 01:01:23;;;;;;;3.45;2.90;;;23.20;50.20;;;;;;5037736;28;20484;-76
2023/12/16 01:03:49;;;;;;;4.13;3.22;;;23.10;50.20;;;;;;5050920;28;20033;-76
2023/12/16 01:06:15;;;;;;;4.20;2.92;;;23.00;50.10;;;;;;4999291;28;20044;-76
2023/12/16 01:08:43;;;;;;;2.92;2.35;;;23.00;50.10;;;;;;5054861;28;20154;-75
2023/12/16 01:11:11;;;;;;;4.70;3.30;;;23.00;50.10;;;;;;5069187;28;20029;-78
2023/12/16 01:13:38;;;;;;;4.13;3.25;;;23.00;50.10;;;;;;5064651;28;20032;-79
2023/12/16 01:16:04;;;;;;;4.10;3.03;;;22.90;50.10;;;;;;5066131;28;20048;-75
2023/12/16 01:18:30;;;;;;;5.03;3.55;;;23.00;50.10;;;;;;5041689;28;20048;-79
2023/12/16 01:20:56;;;;;;;3.70;2.90;;;22.90;50.10;;;;;;5069080;28;20025;-79
2023/12/16 01:23:22;;;;;;;3.00;2.53;;;22.80;50.10;;;;;;5068283;28;20052;-79
2023/12/16 01:25:48;;;;;;;3.67;3.08;;;22.90;50.20;;;;;;5068553;28;20485;-79
2023/12/16 01:28:15;;;;;;;5.10;3.40;;;22.90;50.30;;;;;;5070703;28;20032;-80
2023/12/16 01:30:41;;;;;;;3.95;3.15;;;22.80;50.10;;;;;;5062195;28;20031;-79
2023/12/16 01:33:07;;;;;;;4.65;2.75;;;22.90;50.20;;;;;;5052633;28;20041;-79
2023/12/16 01:35:33;;;;;;;3.40;2.72;;;23.00;50.20;;;;;;5054837;28;20043;-79
2023/12/16 01:37:59;;;;;;;4.03;2.97;;;23.00;50.20;;;;;;5058109;28;20041;-79
2023/12/16 01:40:25;;;;;;;4.80;3.50;;;22.80;50.00;;;;;;5055697;28;20037;-78
2023/12/16 01:42:54;;;;;;;5.05;3.10;;;22.90;50.00;;;;;;5063101;28;20513;-78
2023/12/16 01:45:21;;;;;;;3.78;3.10;;;22.90;50.00;;;;;;5064575;28;20078;-79
2023/12/16 01:47:47;;;;;;;4.18;3.00;;;22.90;50.00;;;;;;5070833;28;20056;-80
2023/12/16 01:50:14;;;;;;;3.97;2.88;;;22.90;50.00;;;;;;5072923;28;20100;-79
2023/12/16 01:52:44;;;;;;;4.05;3.28;;;22.90;50.00;;;;;;5065368;28;20111;-79
2023/12/16 01:55:10;;;;;;;4.00;3.05;;;22.90;49.90;;;;;;5074432;28;20028;-78
2023/12/16 01:57:37;;;;;;;3.45;2.70;;;22.80;49.80;;;;;;5057742;28;20037;-80
2023/12/16 02:00:09;;;;;;;4.70;3.40;;;22.90;49.90;;;;;;5057779;28;20123;-79
2023/12/16 02:02:40;;;;;;;5.60;3.08;;;22.80;49.90;;;;;;5054328;28;20132;-78
2023/12/16 02:05:07;;;;;;;5.25;3.05;;;22.70;49.90;;;;;;5072582;28;20617;-80
2023/12/16 02:07:33;;;;;;;6.68;3.25;;;22.70;49.90;;;;;;5073481;28;20400;-80
2023/12/16 02:10:01;;;;;;;4.72;3.70;;;22.60;49.80;;;;;;5057573;28;20043;-80
2023/12/16 02:12:27;;;;;;;4.63;2.95;;;22.80;49.90;;;;;;5072361;28;20353;-80
2023/12/16 02:14:53;;;;;;;4.70;3.38;;;22.70;49.90;;;;;;5064538;28;20056;-78
2023/12/16 02:17:19;;;;;;;5.47;3.10;;;22.60;49.90;;;;;;5058776;28;20073;-79
2023/12/16 02:19:47;;;;;;;4.45;3.13;;;22.60;49.90;;;;;;5053901;28;20023;-72
2023/12/16 02:22:13;;;;;;;4.38;3.13;;;22.60;49.80;;;;;;5054643;28;20028;-79
2023/12/16 02:24:41;;;;;;;4.82;3.10;;;22.60;49.80;;;;;;5055041;28;20045;-79
2023/12/16 02:27:08;;;;;;;5.05;3.38;;;22.70;49.90;;;;;;5053608;28;20045;-79
2023/12/16 02:29:34;;;;;;;3.35;3.05;;;22.60;49.70;;;;;;5054939;28;20640;-79
2023/12/16 02:32:00;;;;;;;5.38;3.63;;;22.60;49.70;;;;;;5056577;28;20062;-80
2023/12/16 02:34:26;;;;;;;6.50;2.95;;;22.60;49.70;;;;;;5018615;28;20128;-80
2023/12/16 02:36:53;;;;;;;5.85;3.08;;;22.60;49.60;;;;;;5035700;28;20029;-77
2023/12/16 02:39:19;;;;;;;6.07;3.70;;;22.70;49.70;;;;;;5059182;28;20063;-77
2023/12/16 02:41:45;;;;;;;4.70;3.95;;;22.70;49.70;;;;;;5055333;28;20354;-79
2023/12/16 02:44:11;;;;;;;4.85;3.42;;;22.60;49.60;;;;;;5053769;28;20021;-78
2023/12/16 02:46:37;;;;;;;7.10;3.40;;;22.70;49.60;;;;;;5070641;28;20033;-80
2023/12/16 02:49:03;;;;;;;6.75;3.97;;;22.60;49.50;;;;;;5073594;28;20029;-77
2023/12/16 02:51:29;;;;;;;4.88;3.55;;;22.60;49.50;;;;;;5071842;28;20089;-79
2023/12/16 02:53:56;;;;;;;4.47;3.33;;;22.60;49.60;;;;;;5071783;28;20033;-79
2023/12/16 02:56:22;;;;;;;5.43;3.88;;;22.50;49.60;;;;;;5053279;28;20040;-78
2023/12/16 02:58:49;;;;;;;6.25;3.67;;;22.50;49.60;;;;;;5073254;28;20055;-79
2023/12/16 03:01:16;;;;;;;5.70;3.97;;;22.40;49.60;;;;;;5068004;28;20163;-78
2023/12/16 03:03:42;;;;;;;4.95;3.63;;;22.50;49.60;;;;;;5065548;28;20531;-79
2023/12/16 03:06:08;;;;;;;5.05;3.45;;;22.40;49.50;;;;;;5057426;28;20123;-79
2023/12/16 03:08:35;;;;;;;4.93;4.10;;;22.40;49.60;;;;;;5070705;28;20036;-79
2023/12/16 03:11:02;;;;;;;4.80;3.60;;;22.40;49.60;;;;;;5070608;28;20025;-79
2023/12/16 03:13:28;;;;;;;6.20;3.55;;;22.40;49.50;;;;;;5072749;28;20472;-78
2023/12/16 03:15:54;;;;;;;6.78;3.67;;;22.50;49.60;;;;;;5068228;28;20052;-79
2023/12/16 03:18:20;;;;;;;6.32;3.90;;;22.50;49.50;;;;;;5054010;28;20429;-79
2023/12/16 03:20:50;;;;;;;4.50;3.28;;;22.60;49.50;;;;;;5053850;28;20164;-78
2023/12/16 03:23:16;;;;;;;4.22;3.10;;;22.40;49.40;;;;;;5053345;28;20036;-78
2023/12/16 03:25:43;;;;;;;7.28;4.13;;;22.50;49.50;;;;;;5072843;28;20119;-79
2023/12/16 03:28:09;;;;;;;4.40;3.10;;;22.30;49.40;;;;;;5073003;28;20040;-79
2023/12/16 03:30:39;;;;;;;5.45;3.38;;;22.50;49.40;;;;;;5069342;28;20052;-79
2023/12/16 03:33:05;;;;;;;4.15;3.42;;;22.50;49.30;;;;;;5072707;28;20544;-79
2023/12/16 03:35:31;;;;;;;6.35;3.50;;;22.50;49.30;;;;;;5058034;28;20029;-79
2023/12/16 03:37:57;;;;;;;4.88;3.55;;;22.50;49.30;;;;;;5051940;28;20131;-80
2023/12/16 03:40:23;;;;;;;5.35;3.92;;;22.30;49.20;;;;;;5054438;28;20504;-80
2023/12/16 03:42:49;;;;;;;8.10;4.15;;;22.40;49.20;;;;;;5070039;28;20044;-80
2023/12/16 03:45:15;;;;;;;7.93;5.32;;;22.40;49.20;;;;;;5064881;28;20109;-78
2023/12/16 03:47:41;;;;;;;8.15;4.40;;;22.40;49.20;;;;;;5057118;28;20111;-78
2023/12/16 03:50:08;;;;;;;7.13;4.68;;;22.30;49.20;;;;;;5052263;28;20107;-80
2023/12/16 03:52:34;;;;;;;5.25;4.22;;;22.40;49.30;;;;;;5053631;28;20048;-79
2023/12/16 03:55:00;;;;;;;6.90;4.78;;;22.20;49.20;;;;;;5053510;28;20118;-79
2023/12/16 03:57:26;;;;;;;9.85;6.50;;;22.30;49.30;;;;;;5055310;28;20086;-80
2023/12/16 03:59:52;;;;;;;10.30;6.03;;;22.20;49.20;;;;;;5063207;28;20036;-78
2023/12/16 04:02:18;;;;;;;6.20;4.25;;;22.40;49.20;;;;;;5068780;28;20033;-79
2023/12/16 04:04:44;;;;;;;5.72;4.28;;;22.30;49.20;;;;;;5054095;28;20441;-77
2023/12/16 04:07:10;;;;;;;6.88;4.50;;;22.30;49.10;;;;;;5071724;28;20064;-80
2023/12/16 04:09:38;;;;;;;7.50;4.88;;;22.20;49.00;;;;;;5067803;28;20040;-79
2023/12/16 04:12:05;;;;;;;8.52;4.68;;;22.30;49.10;;;;;;5060611;28;20164;-79
2023/12/16 04:14:36;;;;;;;5.15;4.20;;;22.30;49.10;;;;;;5070160;28;20132;-80
2023/12/16 04:17:02;;;;;;;6.35;4.75;;;22.30;49.00;;;;;;5055993;28;20195;-79
2023/12/16 04:19:28;;;;;;;6.47;4.28;;;22.40;49.00;;;;;;5051647;28;20393;-78
2023/12/16 04:21:54;;;;;;;6.43;4.35;;;22.20;48.80;;;;;;5058514;28;20028;-80
2023/12/16 04:24:20;;;;;;;8.13;4.70;;;22.30;48.90;;;;;;5071482;28;20032;-78
2023/12/16 04:26:46;;;;;;;8.95;4.60;;;22.30;48.90;;;;;;5051549;28;20035;-80
2023/12/16 04:29:12;;;;;;;8.85;4.65;;;22.20;48.80;;;;;;5052461;28;20376;-79
2023/12/16 04:31:38;;;;;;;6.63;4.90;;;22.10;48.80;;;;;;5057808;28;20472;-78
2023/12/16 04:34:05;;;;;;;5.70;4.07;;;22.10;48.90;;;;;;5027064;28;20587;-80
2023/12/16 04:36:31;;;;;;;6.95;4.75;;;22.10;48.80;;;;;;5027804;28;20098;-79
2023/12/16 04:38:57;;;;;;;6.82;4.10;;;22.20;48.90;;;;;;5026549;28;20112;-79
2023/12/16 04:41:23;;;;;;;7.75;5.28;;;22.20;48.90;;;;;;5017239;28;20064;-79
2023/12/16 04:43:50;;;;;;;10.50;5.28;;;22.10;48.80;;;;;;5025583;28;20509;-80
2023/12/16 04:46:20;;;;;;;10.55;4.57;;;22.00;48.80;;;;;;5025696;28;20038;-80
2023/12/16 04:48:46;;;;;;;7.28;4.53;;;22.10;48.90;;;;;;5012286;28;20071;-79
2023/12/16 04:51:12;;;;;;;8.23;4.95;;;22.10;48.80;;;;;;4994315;28;20052;-79
2023/12/16 04:53:38;;;;;;;5.97;4.22;;;22.10;48.80;;;;;;5028805;28;20053;-78
2023/12/16 04:56:05;;;;;;;8.05;4.40;;;22.00;48.60;;;;;;5001149;28;20072;-79
2023/12/16 04:58:32;;;;;;;6.68;4.63;;;22.00;48.60;;;;;;4996211;28;20041;-77
2023/12/16 05:00:58;;;;;;;5.47;4.22;;;22.20;48.70;;;;;;5024128;28;20377;-76
2023/12/16 05:03:24;;;;;;;9.23;4.93;;;22.10;49.20;;;;;;5012632;28;20061;-76
2023/12/16 05:05:50;;;;;;;8.65;4.80;;;22.10;49.40;;;;;;5049460;28;20119;-76
2023/12/16 05:08:16;;;;;;;6.55;5.07;;;22.30;49.60;;;;;;5070630;28;20103;-76
2023/12/16 05:10:45;;;;;;;8.43;5.05;;;22.10;49.80;;;;;;5051256;28;20071;-76
2023/12/16 05:13:12;;;;;;;8.45;5.20;;;22.30;50.20;;;;;;5068704;28;20087;-75
2023/12/16 05:15:38;;;;;;;6.30;4.80;;;22.10;50.60;;;;;;5067912;28;20139;-76
2023/12/16 05:18:06;;;;;;;7.75;4.57;;;22.10;50.90;;;;;;5037034;28;20045;-76
2023/12/16 05:20:32;;;;;;;4.85;4.35;;;22.00;51.10;;;;;;5052068;28;20037;-76
2023/12/16 05:23:01;;;;;;;8.68;4.28;;;21.90;51.50;;;;;;5038567;28;20028;-76
2023/12/16 05:25:30;;;;;;;5.63;4.20;;;22.10;51.80;;;;;;5059141;28;20041;-77
2023/12/16 05:27:57;;;;;;;7.22;5.28;;;22.00;51.90;;;;;;5050675;28;20159;-75
2023/12/16 05:30:24;;;;;;;7.75;5.47;;;22.00;52.10;;;;;;5051587;28;20124;-76
2023/12/16 05:32:50;;;;;;;9.30;5.88;;;21.90;52.20;;;;;;5020960;28;20036;-77
2023/12/16 05:35:18;;;;;;;9.35;6.47;;;21.90;52.50;;;;;;5068158;28;20136;-76
2023/12/16 05:37:50;;;;;;;12.90;6.75;;;22.00;52.60;;;;;;5011778;28;20052;-74
2023/12/16 05:40:16;;;;;;;13.95;7.57;;;22.00;52.60;;;;;;5028272;28;20136;-76
2023/12/16 05:42:42;;;;;;;10.73;7.13;;;22.10;52.60;;;;;;5025799;28;20175;-75
2023/12/16 05:45:09;;;;;;;10.27;6.57;;;22.00;52.60;;;;;;5027281;28;20047;-76
2023/12/16 05:47:35;;;;;;;9.07;5.70;;;22.00;52.50;;;;;;5008452;28;20126;-77
2023/12/16 05:50:03;;;;;;;7.72;5.30;;;22.10;52.50;;;;;;5008131;28;20069;-75
2023/12/16 05:52:31;;;;;;;12.82;7.47;;;22.10;52.40;;;;;;4999199;28;20508;-75
2023/12/16 05:54:58;;;;;;;15.38;8.73;;;22.00;52.30;;;;;;5018525;28;20088;-76
2023/12/16 05:57:24;;;;;;;11.02;7.07;;;22.00;52.40;;;;;;5010423;28;20045;-76
2023/12/16 05:59:50;;;;;;;11.73;7.57;;;22.00;52.40;;;;;;5009681;28;20397;-77
2023/12/16 06:02:16;;;;;;;10.18;6.80;;;21.90;52.40;;;;;;5010356;28;20769;-76
2023/12/16 06:04:42;;;;;;;8.23;5.70;;;22.00;52.40;;;;;;5019277;28;20438;-72
2023/12/16 06:07:08;;;;;;;10.82;5.85;;;22.00;52.50;;;;;;5011097;28;20034;-72
2023/12/16 06:09:34;;;;;;;8.45;5.68;;;21.90;52.50;;;;;;5027169;28;20077;-72
2023/12/16 06:12:00;;;;;;;7.53;4.82;;;22.00;52.40;;;;;;5007948;28;20457;-73
2023/12/16 06:14:26;;;;;;;10.80;6.35;;;21.90;52.40;;;;;;5019997;28;20470;-72
2023/12/16 06:16:52;;;;;;;10.43;6.20;;;22.00;52.50;;;;;;5059848;28;20095;-72
2023/12/16 06:19:18;;;;;;;10.80;6.30;;;21.90;52.50;;;;;;5052028;28;20417;-72
2023/12/16 06:21:44;;;;;;;14.75;9.82;;;21.90;52.60;;;;;;5054822;28;20528;-72
2023/12/16 06:24:10;;;;;;;32.63;22.25;;;21.90;52.60;;;;;;5064990;28;20060;-72
2023/12/16 06:26:36;;;;;;;88.20;53.35;;;21.90;52.80;;;;;;5066379;28;20028;-72
2023/12/16 06:29:02;;;;;;;57.30;37.60;;;21.90;52.80;;;;;;5054917;28;20619;-72
2023/12/16 06:31:28;;;;;;;93.13;54.78;;;21.90;52.80;;;;;;5056039;28;20024;-73
2023/12/16 06:33:54;;;;;;;137.68;89.45;;;22.20;52.90;;;;;;5066502;28;20122;-72
2023/12/16 06:36:20;;;;;;;42.10;31.40;;;22.10;52.90;;;;;;5072264;28;20082;-72
2023/12/16 06:38:46;;;;;;;44.85;30.42;;;21.90;52.80;;;;;;5054266;28;20509;-72
2023/12/16 06:41:13;;;;;;;21.45;17.67;;;22.00;52.80;;;;;;5070723;28;20815;-72
2023/12/16 06:43:39;;;;;;;20.45;17.02;;;22.10;53.00;;;;;;5051604;28;20395;-72
2023/12/16 06:46:08;;;;;;;14.65;10.45;;;21.90;52.80;;;;;;5016763;28;20067;-72
2023/12/16 06:48:35;;;;;;;15.38;10.40;;;22.00;52.80;;;;;;5035509;28;20029;-72
2023/12/16 06:51:01;;;;;;;17.83;10.32;;;21.90;52.80;;;;;;5055502;28;20021;-73
2023/12/16 06:53:27;;;;;;;13.82;8.68;;;21.90;52.80;;;;;;5056747;28;20036;-73
2023/12/16 06:55:53;;;;;;;11.00;7.50;;;21.90;53.00;;;;;;5062107;28;20032;-73
2023/12/16 06:58:22;;;;;;;5.50;4.50;;;21.80;53.30;;;;;;5042930;28;20029;-77
2023/12/16 07:00:48;;;;;;;4.28;3.88;;;21.90;47.70;;;;;;5059991;28;20033;-76
2023/12/16 07:03:14;;;;;;;6.05;4.43;;;21.90;47.80;;;;;;5064281;28;20057;-76
2023/12/16 07:05:40;;;;;;;6.80;4.35;;;22.10;48.30;;;;;;5061493;28;20025;-76
2023/12/16 07:08:06;;;;;;;5.80;4.40;;;22.00;43.00;;;;;;5028459;28;20044;-75
2023/12/16 07:10:32;;;;;;;7.05;4.82;;;22.00;42.70;;;;;;5062707;28;20396;-77
2023/12/16 07:12:59;;;;;;;8.43;4.43;;;22.00;42.50;;;;;;5056574;28;20141;-73
2023/12/16 07:15:25;;;;;;;5.78;4.90;;;22.00;43.50;;;;;;5063733;28;20048;-76
2023/12/16 07:17:51;;;;;;;7.50;5.10;;;22.10;43.60;;;;;;5061958;28;20037;-77
2023/12/16 07:20:17;;;;;;;11.05;4.85;;;22.30;43.50;;;;;;5062035;28;20081;-74
2023/12/16 07:22:43;;;;;;;5.75;4.78;;;22.10;45.30;;;;;;5062405;28;20047;-69
2023/12/16 07:25:09;;;;;;;5.65;4.63;;;22.20;46.50;;;;;;5062385;28;20033;-69
2023/12/16 07:27:35;;;;;;;6.75;5.30;;;22.20;49.50;;;;;;5062110;28;20025;-70
2023/12/16 07:30:02;;;;;;;7.07;5.78;;;22.40;50.50;;;;;;5041789;28;20402;-74
2023/12/16 07:32:28;;;;;;;9.80;6.15;;;22.40;46.00;;;;;;5064538;28;20033;-75
2023/12/16 07:34:54;;;;;;;12.52;8.60;;;22.50;44.50;;;;;;5072587;28;20369;-76
2023/12/16 07:37:20;;;;;;;13.00;8.30;;;22.50;45.60;;;;;;5067198;28;20384;-81
2023/12/16 07:39:47;;;;;;;13.70;8.15;;;22.50;53.20;;;;;;5064457;28;20027;-72
2023/12/16 07:42:13;;;;;;;4.00;3.40;;;22.60;54.70;;;;;;5062098;28;20033;-76
2023/12/16 07:44:39;;;;;;;4.78;4.10;;;22.80;52.70;;;;;;5036498;28;20064;-74
2023/12/16 07:47:05;;;;;;;5.22;2.75;;;22.80;50.80;;;;;;5057182;28;20500;-71
2023/12/16 07:49:31;;;;;;;2.72;2.50;;;22.80;53.10;;;;;;5053067;28;20044;-77
2023/12/16 07:51:57;;;;;;;5.72;3.05;;;22.90;54.60;;;;;;5016491;28;20052;-73
2023/12/16 07:54:24;;;;;;;5.40;3.42;;;23.00;54.60;;;;;;5060900;28;20033;-72
2023/12/16 07:56:50;;;;;;;4.22;2.75;;;23.10;52.40;;;;;;5057360;28;20041;-75
2023/12/16 07:59:17;;;;;;;6.03;3.45;;;23.10;51.80;;;;;;5058160;28;20091;-78
2023/12/16 08:01:49;;;;;;;7.18;4.30;;;23.20;51.40;;;;;;5059269;28;20032;-74
2023/12/16 08:04:16;;;;;;;4.70;3.67;;;23.20;52.10;;;;;;5072024;28;20388;-73
2023/12/16 08:06:42;;;;;;;4.70;3.05;;;23.20;51.50;;;;;;5031318;28;20170;-72
2023/12/16 08:09:09;;;;;;;9.07;3.47;;;23.10;52.10;;;;;;5022355;28;20081;-73
2023/12/16 08:11:35;;;;;;;6.90;3.88;;;23.20;52.60;;;;;;5070156;28;20115;-72
2023/12/16 08:14:01;;;;;;;7.22;4.15;;;23.20;51.70;;;;;;5046458;28;20072;-70
2023/12/16 08:16:27;;;;;;;6.88;4.18;;;23.10;50.90;;;;;;5075106;28;20062;-73
2023/12/16 08:18:53;;;;;;;4.03;3.35;;;23.20;50.80;;;;;;5078461;28;20082;-73
2023/12/16 08:21:20;;;;;;;7.40;4.22;;;23.20;50.20;;;;;;5078034;28;20043;-74
2023/12/16 08:23:47;;;;;;;5.78;3.88;;;23.10;49.70;;;;;;5085535;28;20428;-72
2023/12/16 08:26:13;;;;;;;6.00;3.92;;;23.20;49.20;;;;;;5083669;28;20082;-73
2023/12/16 08:28:40;;;;;;;7.88;4.70;;;23.20;48.90;;;;;;5073761;28;20040;-73
2023/12/16 08:31:07;;;;;;;8.85;4.30;;;23.20;49.80;;;;;;5073774;28;20016;-78
2023/12/16 08:33:34;;;;;;;7.85;4.32;;;23.40;49.10;;;;;;5071033;28;20051;-74
2023/12/16 08:36:00;;;;;;;14.90;5.68;;;23.40;48.20;;;;;;5074112;28;20036;-73
2023/12/16 08:38:26;;;;;;;7.20;4.28;;;23.50;47.80;;;;;;5076144;28;20027;-75
2023/12/16 08:40:54;;;;;;;8.13;4.82;;;23.70;47.90;;;;;;5073564;28;20047;-74
2023/12/16 08:43:20;;;;;;;9.82;4.82;;;23.70;47.70;;;;;;5077359;28;20032;-77
2023/12/16 08:45:46;;;;;;;6.75;4.10;;;23.70;46.70;;;;;;5079786;28;20039;-73
2023/12/16 08:48:12;;;;;;;6.78;4.65;;;23.80;46.20;;;;;;5068245;28;20033;-72
2023/12/16 08:50:38;;;;;;;9.05;4.07;;;23.60;45.90;;;;;;5072354;28;20055;-73
2023/12/16 08:53:09;;;;;;;5.28;4.18;;;23.70;45.50;;;;;;5068224;28;20036;-79
2023/12/16 08:55:35;;;;;;;7.07;4.55;;;23.60;45.00;;;;;;5068677;28;20040;-80
2023/12/16 08:58:01;;;;;;;14.20;8.45;;;23.70;44.90;;;;;;5074434;28;20057;-75
2023/12/16 09:00:27;;;;;;;12.80;8.55;;;23.50;44.70;;;;;;5079314;28;20387;-77
2023/12/16 09:02:53;;;;;;;16.33;9.15;;;23.60;44.90;;;;;;5068819;28;20447;-77
2023/12/16 09:05:19;;;;;;;17.25;9.10;;;23.50;45.10;;;;;;5077627;28;20060;-73
2023/12/16 09:07:45;;;;;;;13.38;9.00;;;23.50;45.30;;;;;;5081515;28;20063;-74
2023/12/16 09:10:13;;;;;;;21.90;9.13;;;23.50;45.50;;;;;;5082441;28;20037;-76
2023/12/16 09:12:39;;;;;;;15.68;8.75;;;23.40;45.60;;;;;;5082611;28;20035;-75
2023/12/16 09:15:06;;;;;;;14.95;9.43;;;23.40;45.90;;;;;;5065575;28;20057;-81
2023/12/16 09:17:32;;;;;;;11.30;8.40;;;23.30;46.30;;;;;;5049666;28;20045;-76
2023/12/16 09:19:58;;;;;;;13.68;8.50;;;23.40;46.50;;;;;;5047944;28;20033;-76
2023/12/16 09:22:24;;;;;;;11.80;7.63;;;23.30;46.80;;;;;;5064840;28;20033;-74
2023/12/16 09:24:50;;;;;;;12.95;8.93;;;23.10;47.00;;;;;;5065712;28;20046;-80
2023/12/16 09:27:17;;;;;;;11.63;7.43;;;23.10;47.20;;;;;;5051528;28;20061;-78
2023/12/16 09:29:43;;;;;;;11.27;7.50;;;23.00;47.50;;;;;;5059373;28;20496;-76
2023/12/16 09:32:10;;;;;;;15.82;8.98;;;23.10;47.90;;;;;;5052045;28;20067;-77
2023/12/16 09:34:36;;;;;;;13.75;8.55;;;23.00;48.10;;;;;;5049013;28;20044;-75
2023/12/16 09:37:02;;;;;;;16.63;9.40;;;23.00;48.50;;;;;;5047726;28;20033;-74
2023/12/16 09:39:28;;;;;;;16.27;9.00;;;22.90;48.70;;;;;;5048291;28;20041;-70
2023/12/16 09:41:56;;;;;;;11.75;7.97;;;22.80;48.90;;;;;;5032215;28;20093;-76
2023/12/16 09:44:24;;;;;;;11.73;8.57;;;22.70;49.50;;;;;;5049662;28;20029;-76
2023/12/16 09:46:50;;;;;;;17.70;8.93;;;22.80;49.60;;;;;;5051351;28;20455;-79
2023/12/16 09:49:17;;;;;;;10.07;6.32;;;22.80;49.80;;;;;;5051259;28;20186;-73
2023/12/16 09:51:43;;;;;;;8.70;6.05;;;22.80;50.20;;;;;;5049373;28;20060;-75
2023/12/16 09:54:09;;;;;;;6.85;5.10;;;22.70;51.40;;;;;;5061601;28;20024;-79
2023/12/16 09:56:37;;;;;;;6.28;4.45;;;22.70;52.00;;;;;;5071944;28;20051;-79
2023/12/16 09:59:05;;;;;;;4.72;3.95;;;22.70;52.00;;;;;;5069759;28;20144;-76
2023/12/16 10:01:31;;;;;;;8.32;4.53;;;22.70;51.40;;;;;;5061485;28;20033;-78
2023/12/16 10:03:58;;;;;;;6.93;4.53;;;22.70;51.40;;;;;;5056246;28;20041;-82
2023/12/16 10:06:24;;;;;;;8.32;3.88;;;22.60;51.30;;;;;;5063488;28;20134;-77
2023/12/16 10:08:50;;;;;;;9.35;5.03;;;22.70;51.60;;;;;;5067075;28;20039;-77
2023/12/16 10:11:17;;;;;;;8.10;4.43;;;22.70;51.90;;;;;;5046523;28;20025;-74
2023/12/16 10:14:03;;;;;;;7.50;4.28;;;22.70;52.00;;;;;;5069053;28;20033;-74
2023/12/16 10:16:29;;;;;;;8.65;4.90;;;22.70;51.90;;;;;;5055304;28;20060;-74
2023/12/16 10:18:57;;;;;;;8.48;4.47;;;22.80;51.90;;;;;;5053990;28;20139;-72
2023/12/16 10:21:30;;;;;;;6.20;4.38;;;22.80;52.00;;;;;;5054722;28;20041;-78
2023/12/16 10:24:00;;;;;;;11.43;4.15;;;22.70;52.80;;;;;;5055863;28;20032;-73
2023/12/16 10:26:30;;;;;;;7.38;4.50;;;22.80;53.10;;;;;;5054446;28;20472;-72
2023/12/16 10:28:57;;;;;;;7.88;4.60;;;22.90;53.80;;;;;;5058586;28;20040;-76
2023/12/16 10:31:24;;;;;;;8.85;5.35;;;22.90;54.30;;;;;;5063262;28;20111;-76
2023/12/16 10:33:51;;;;;;;7.30;4.30;;;22.90;54.70;;;;;;5073808;28;20044;-75
2023/12/16 10:36:18;;;;;;;11.90;4.85;;;22.90;54.90;;;;;;5052289;28;20035;-74
2023/12/16 10:38:44;;;;;;;5.00;4.13;;;23.00;55.00;;;;;;5074604;28;20045;-82
2023/12/16 10:41:10;;;;;;;9.75;4.50;;;22.90;55.20;;;;;;5070868;28;20043;-81
2023/12/16 10:43:37;;;;;;;5.68;3.78;;;22.90;55.30;;;;;;5061626;28;20029;-81
2023/12/16 10:46:05;;;;;;;5.20;3.75;;;22.90;55.40;;;;;;5064927;28;20028;-80
2023/12/16 10:48:35;;;;;;;6.50;4.63;;;22.90;55.50;;;;;;5053671;28;20036;-79
2023/12/16 10:51:03;;;;;;;6.78;4.63;;;22.90;55.40;;;;;;5053628;28;20060;-79
2023/12/16 10:53:44;;;;;;;6.68;3.97;;;22.90;55.40;;;;;;5062907;28;20578;-81
2023/12/16 10:56:27;;;;;;;6.50;4.43;;;22.90;55.30;;;;;;5073800;28;20033;-78
2023/12/16 10:59:12;;;;;;;7.43;4.25;;;23.00;55.30;;;;;;5038661;28;20135;-78
2023/12/16 11:01:42;;;;;;;7.93;4.13;;;23.00;55.40;;;;;;5058970;28;20040;-78
2023/12/16 11:04:16;;;;;;;8.65;3.88;;;23.00;55.40;;;;;;5053080;28;20029;-78
2023/12/16 11:06:48;;;;;;;4.25;1.80;;;23.00;55.50;;;;;;5060764;28;20025;-79
2023/12/16 11:09:15;;;;;;;17.02;3.40;;;23.10;48.70;;;;;;5064027;28;20043;-78
2023/12/16 11:11:42;;;;;;;8.13;2.40;;;23.10;49.20;;;;;;5061244;28;20392;-78
2023/12/16 11:14:09;;;;;;;4.43;2.60;;;23.00;43.50;;;;;;5037849;28;20044;-78
2023/12/16 11:17:12;;;;;;;3.38;2.78;;;23.10;45.50;;;;;;5070483;28;20052;-79
2023/12/16 11:19:43;;;;;;;3.22;2.72;;;23.00;44.60;;;;;;5073022;28;20547;-78
2023/12/16 11:22:20;;;;;;;4.68;2.72;;;23.00;43.30;;;;;;5064038;28;20112;-79
2023/12/16 11:24:46;;;;;;;2.42;2.22;;;23.10;40.30;;;;;;5053053;28;20068;-80
2023/12/16 11:27:15;;;;;;;2.88;2.42;;;23.00;38.20;;;;;;5036370;28;20420;-79
2023/12/16 11:29:42;;;;;;;2.97;2.28;;;23.20;38.10;;;;;;5057758;28;20345;-75
2023/12/16 11:32:09;;;;;;;2.45;2.25;;;23.10;41.40;;;;;;5051415;28;20420;-77
2023/12/16 11:34:42;;;;;;;6.93;2.75;;;23.10;46.00;;;;;;5068826;28;20457;-76
2023/12/16 11:37:08;;;;;;;4.70;2.88;;;23.40;46.60;;;;;;5066170;28;20048;-69
2023/12/16 11:39:48;;;;;;;4.85;2.33;;;23.40;44.50;;;;;;5051963;28;20446;-70
2023/12/16 11:42:51;;;;;;;2.40;2.20;;;23.50;42.30;;;;;;5053867;28;20029;-70
2023/12/16 11:45:38;;;;;;;;;;;23.50;39.10;;;;;;5057824;28;20025;-69
2023/12/16 11:48:09;;;;;;;7.55;4.32;;;23.40;50.00;;;;;;5061993;28;19996;-69
2023/12/16 11:50:39;;;;;;;8.30;5.07;;;23.60;53.60;;;;;;5068935;28;20036;-70
2023/12/16 11:53:11;;;;;;;8.02;4.75;;;23.70;54.10;;;;;;5055966;28;20033;-70
2023/12/16 11:55:38;;;;;;;7.82;4.70;;;23.70;54.20;;;;;;5060346;28;20039;-69
2023/12/16 11:58:04;;;;;;;8.18;4.93;;;23.70;53.90;;;;;;5055764;28;20021;-70
2023/12/16 12:00:31;;;;;;;9.82;5.50;;;23.70;54.00;;;;;;5052131;28;20094;-70
2023/12/16 12:03:00;;;;;;;14.50;7.18;;;23.80;53.90;;;;;;5049502;28;20036;-70
2023/12/16 12:05:27;;;;;;;7.97;5.18;;;23.70;54.20;;;;;;5051862;28;20117;-69
2023/12/16 12:07:54;;;;;;;11.00;5.68;;;23.60;54.30;;;;;;5062118;28;20123;-69
2023/12/16 12:10:20;;;;;;;7.63;5.30;;;23.70;54.50;;;;;;5057001;28;20500;-74
2023/12/16 12:12:47;;;;;;;8.02;5.22;;;23.80;54.40;;;;;;5054569;28;20612;-78
2023/12/16 12:15:13;;;;;;;8.00;5.22;;;23.80;54.60;;;;;;5062967;28;20175;-75
2023/12/16 12:17:39;;;;;;;11.20;5.30;;;23.70;55.00;;;;;;5071182;28;20694;-72
2023/12/16 12:20:07;;;;;;;9.27;5.75;;;23.60;55.30;;;;;;5067891;28;20087;-75
2023/12/16 12:22:34;;;;;;;12.70;6.82;;;23.60;56.60;;;;;;5065636;28;20044;-81
2023/12/16 12:25:00;;;;;;;11.75;6.65;;;23.60;57.90;;;;;;5051727;28;20551;-74
2023/12/16 12:27:29;;;;;;;9.38;6.15;;;23.50;59.30;;;;;;5058082;28;20039;-72
2023/12/16 12:30:06;;;;;;;9.77;2.60;;;23.40;58.70;;;;;;5043683;28;20154;-78
2023/12/16 12:32:33;;;;;;;8.07;3.33;;;23.60;57.10;;;;;;5052071;28;20082;-71
2023/12/16 12:35:11;;;;;;;4.47;2.90;;;23.70;54.30;;;;;;5011025;28;20041;-72
2023/12/16 12:37:45;;;;;;;6.55;3.50;;;23.90;58.10;;;;;;5071052;28;20051;-73
2023/12/16 12:40:14;;;;;;;4.63;3.10;;;24.10;57.00;;;;;;5068841;28;20509;-73
2023/12/16 12:42:49;;;;;;;5.20;3.33;;;24.00;55.70;;;;;;5062063;28;20113;-73
2023/12/16 12:45:35;;;;;;;5.68;2.83;;;23.90;54.60;;;;;;5052765;28;20500;-75